sensor_id;sensor_type;location;lat;lon;timestamp;temperature;humidity
38458;DHT22;24239;48.058;10.486;2023-06-01T00:00:18;12.20;99.90
38458;DHT22;24239;48.058;10.486;2023-06-01T00:02:45;12.10;99.90
38458;DHT22;24239;48.058;10.486;2023-06-01T00:05:10;12.30;99.90
38458;DHT22;24239;48.058;10.486;2023-06-01T00:07:38;12.10;99.90
38458;DHT22;24239;48.058;10.486;2023-06-01T00:10:06;12.10;99.90
38458;DHT22;24239;48.058;10.486;2023-06-01T00:12:32;12.10;99.90
38458;DHT22;24239;48.058;10.486;2023-06-01T00:14:59;12.00;99.90
38458;DHT22;24239;48.058;10.486;2023-06-01T00:17:30;12.00;99.90
38458;DHT22;24239;48.058;10.486;2023-06-01T00:19:56;12.00;99.90
38458;DHT22;24239;48.058;10.486;2023-06-01T00:22:22;12.00;99.90
38458;DHT22;24239;48.058;10.486;2023-06-01T00:24:50;11.90;99.90
38458;DHT22;24239;48.058;10.486;2023-06-01T00:27:18;11.90;99.90
38458;DHT22;24239;48.058;10.486;2023-06-01T00:29:43;11.90;99.90
38458;DHT22;24239;48.058;10.486;2023-06-01T00:32:09;11.80;99.90
38458;DHT22;24239;48.058;10.486;2023-06-01T00:34:37;11.80;99.90
38458;DHT22;24239;48.058;10.486;2023-06-01T00:37:02;11.80;99.90
38458;DHT22;24239;48.058;10.486;2023-06-01T00:39:28;11.80;99.90
38458;DHT22;24239;48.058;10.486;2023-06-01T00:41:55;11.80;99.90
38458;DHT22;24239;48.058;10.486;2023-06-01T00:44:24;11.70;99.90
38458;DHT22;24239;48.058;10.486;2023-06-01T00:46:52;11.70;99.90
38458;DHT22;24239;48.058;10.486;2023-06-01T00:49:18;11.70;99.90
38458;DHT22;24239;48.058;10.486;2023-06-01T00:51:44;11.50;99.90
38458;DHT22;24239;48.058;10.486;2023-06-01T00:54:10;11.60;99.90
38458;DHT22;24239;48.058;10.486;2023-06-01T00:56:39;11.50;99.90
38458;DHT22;24239;48.058;10.486;2023-06-01T00:59:07;11.50;99.90
38458;DHT22;24239;48.058;10.486;2023-06-01T01:01:37;11.50;99.90
38458;DHT22;24239;48.058;10.486;2023-06-01T01:04:06;11.40;99.90
38458;DHT22;24239;48.058;10.486;2023-06-01T01:06:48;11.40;99.90
38458;DHT22;24239;48.058;10.486;2023-06-01T01:11:57;11.30;99.90
38458;DHT22;24239;48.058;10.486;2023-06-01T01:14:28;11.30;99.90
38458;DHT22;24239;48.058;10.486;2023-06-01T01:27:23;11.10;99.90
38458;DHT22;24239;48.058;10.486;2023-06-01T01:29:52;11.10;99.90
38458;DHT22;24239;48.058;10.486;2023-06-01T01:32:19;11.10;99.90
38458;DHT22;24239;48.058;10.486;2023-06-01T01:34:45;11.10;99.90
38458;DHT22;24239;48.058;10.486;2023-06-01T01:37:12;11.00;99.90
38458;DHT22;24239;48.058;10.486;2023-06-01T01:39:38;11.00;99.90
38458;DHT22;24239;48.058;10.486;2023-06-01T01:42:04;11.00;99.90
38458;DHT22;24239;48.058;10.486;2023-06-01T01:44:33;10.90;99.90
38458;DHT22;24239;48.058;10.486;2023-06-01T01:49:38;10.90;99.90
38458;DHT22;24239;48.058;10.486;2023-06-01T01:54:43;10.90;99.90
38458;DHT22;24239;48.058;10.486;2023-06-01T01:57:09;10.90;99.90
38458;DHT22;24239;48.058;10.486;2023-06-01T01:59:38;10.80;99.90
38458;DHT22;24239;48.058;10.486;2023-06-01T02:02:04;10.70;99.90
38458;DHT22;24239;48.058;10.486;2023-06-01T02:04:31;10.70;99.90
38458;DHT22;24239;48.058;10.486;2023-06-01T02:06:59;10.70;99.90
38458;DHT22;24239;48.058;10.486;2023-06-01T02:09:28;10.60;99.90
38458;DHT22;24239;48.058;10.486;2023-06-01T02:11:56;10.60;99.90
38458;DHT22;24239;48.058;10.486;2023-06-01T02:14:22;10.60;99.90
38458;DHT22;24239;48.058;10.486;2023-06-01T02:16:47;10.60;99.90
38458;DHT22;24239;48.058;10.486;2023-06-01T02:19:17;10.50;99.90
38458;DHT22;24239;48.058;10.486;2023-06-01T02:21:45;10.50;99.90
38458;DHT22;24239;48.058;10.486;2023-06-01T02:24:12;10.50;99.90
38458;DHT22;24239;48.058;10.486;2023-06-01T02:26:41;10.50;99.90
38458;DHT22;24239;48.058;10.486;2023-06-01T02:29:09;10.50;99.90
38458;DHT22;24239;48.058;10.486;2023-06-01T02:31:37;10.50;99.90
38458;DHT22;24239;48.058;10.486;2023-06-01T02:34:03;10.50;99.90
38458;DHT22;24239;48.058;10.486;2023-06-01T02:36:31;10.50;99.90
38458;DHT22;24239;48.058;10.486;2023-06-01T02:38:57;10.40;99.90
38458;DHT22;24239;48.058;10.486;2023-06-01T02:41:23;10.40;99.90
38458;DHT22;24239;48.058;10.486;2023-06-01T02:43:50;10.30;99.90
38458;DHT22;24239;48.058;10.486;2023-06-01T02:46:18;10.30;99.90
38458;DHT22;24239;48.058;10.486;2023-06-01T02:48:46;10.30;99.90
38458;DHT22;24239;48.058;10.486;2023-06-01T02:51:12;10.30;99.90
38458;DHT22;24239;48.058;10.486;2023-06-01T02:53:40;10.30;99.90
38458;DHT22;24239;48.058;10.486;2023-06-01T02:56:06;10.20;99.90
38458;DHT22;24239;48.058;10.486;2023-06-01T02:58:34;10.20;99.90
38458;DHT22;24239;48.058;10.486;2023-06-01T03:01:03;10.20;99.90
38458;DHT22;24239;48.058;10.486;2023-06-01T03:03:28;10.10;99.90
38458;DHT22;24239;48.058;10.486;2023-06-01T03:05:54;10.20;99.90
38458;DHT22;24239;48.058;10.486;2023-06-01T03:08:20;10.10;99.90
38458;DHT22;24239;48.058;10.486;2023-06-01T03:10:46;10.10;99.90
38458;DHT22;24239;48.058;10.486;2023-06-01T03:13:12;10.10;99.90
38458;DHT22;24239;48.058;10.486;2023-06-01T03:15:39;10.10;99.90
38458;DHT22;24239;48.058;10.486;2023-06-01T03:18:06;10.00;99.90
38458;DHT22;24239;48.058;10.486;2023-06-01T03:20:32;10.10;99.90
38458;DHT22;24239;48.058;10.486;2023-06-01T03:22:58;10.00;99.90
38458;DHT22;24239;48.058;10.486;2023-06-01T03:25:23;10.10;99.90
38458;DHT22;24239;48.058;10.486;2023-06-01T03:27:51;10.10;99.90
38458;DHT22;24239;48.058;10.486;2023-06-01T03:30:17;10.10;99.90
38458;DHT22;24239;48.058;10.486;2023-06-01T03:32:43;10.20;99.90
38458;DHT22;24239;48.058;10.486;2023-06-01T03:35:13;10.00;99.90
38458;DHT22;24239;48.058;10.486;2023-06-01T03:37:41;10.10;99.90
38458;DHT22;24239;48.058;10.486;2023-06-01T03:40:09;10.10;99.90
38458;DHT22;24239;48.058;10.486;2023-06-01T03:45:04;10.10;99.90
38458;DHT22;24239;48.058;10.486;2023-06-01T03:47:30;10.10;99.90
38458;DHT22;24239;48.058;10.486;2023-06-01T03:49:59;10.10;99.90
38458;DHT22;24239;48.058;10.486;2023-06-01T03:52:28;10.10;99.90
38458;DHT22;24239;48.058;10.486;2023-06-01T03:54:55;10.10;99.90
38458;DHT22;24239;48.058;10.486;2023-06-01T03:57:21;10.10;99.90
38458;DHT22;24239;48.058;10.486;2023-06-01T03:59:48;10.10;99.90
38458;DHT22;24239;48.058;10.486;2023-06-01T04:02:16;10.10;99.90
38458;DHT22;24239;48.058;10.486;2023-06-01T04:04:43;10.20;99.90
38458;DHT22;24239;48.058;10.486;2023-06-01T04:07:13;10.40;99.90
38458;DHT22;24239;48.058;10.486;2023-06-01T04:09:48;10.70;99.90
38458;DHT22;24239;48.058;10.486;2023-06-01T04:12:15;11.20;99.90
38458;DHT22;24239;48.058;10.486;2023-06-01T04:14:41;11.70;99.90
38458;DHT22;24239;48.058;10.486;2023-06-01T04:17:08;12.30;99.90
38458;DHT22;24239;48.058;10.486;2023-06-01T04:19:34;12.90;99.90
38458;DHT22;24239;48.058;10.486;2023-06-01T04:22:05;13.40;99.90
38458;DHT22;24239;48.058;10.486;2023-06-01T04:24:30;14.00;99.90
38458;DHT22;24239;48.058;10.486;2023-06-01T04:26:59;14.50;99.90
38458;DHT22;24239;48.058;10.486;2023-06-01T04:29:28;14.80;99.90
38458;DHT22;24239;48.058;10.486;2023-06-01T04:31:57;15.20;99.90
38458;DHT22;24239;48.058;10.486;2023-06-01T04:34:24;15.60;99.90
38458;DHT22;24239;48.058;10.486;2023-06-01T04:36:51;16.00;99.90
38458;DHT22;24239;48.058;10.486;2023-06-01T04:39:19;16.40;99.90
38458;DHT22;24239;48.058;10.486;2023-06-01T04:41:46;16.90;99.90
38458;DHT22;24239;48.058;10.486;2023-06-01T04:44:13;17.20;99.90
38458;DHT22;24239;48.058;10.486;2023-06-01T04:46:39;17.60;99.90
38458;DHT22;24239;48.058;10.486;2023-06-01T04:49:07;18.00;99.90
38458;DHT22;24239;48.058;10.486;2023-06-01T04:51:34;18.20;99.90
38458;DHT22;24239;48.058;10.486;2023-06-01T04:54:04;18.60;99.90
38458;DHT22;24239;48.058;10.486;2023-06-01T04:56:30;18.90;99.60
38458;DHT22;24239;48.058;10.486;2023-06-01T04:58:55;19.20;99.30
38458;DHT22;24239;48.058;10.486;2023-06-01T05:01:22;19.50;99.00
38458;DHT22;24239;48.058;10.486;2023-06-01T05:03:50;19.60;98.50
38458;DHT22;24239;48.058;10.486;2023-06-01T05:06:18;19.80;98.30
38458;DHT22;24239;48.058;10.486;2023-06-01T05:08:44;20.20;98.10
38458;DHT22;24239;48.058;10.486;2023-06-01T05:11:10;20.40;97.40
38458;DHT22;24239;48.058;10.486;2023-06-01T05:13:39;20.60;96.90
38458;DHT22;24239;48.058;10.486;2023-06-01T05:16:08;20.50;96.80
38458;DHT22;24239;48.058;10.486;2023-06-01T05:18:34;20.40;96.90
38458;DHT22;24239;48.058;10.486;2023-06-01T05:21:00;21.10;95.70
38458;DHT22;24239;48.058;10.486;2023-06-01T05:23:26;21.10;95.80
38458;DHT22;24239;48.058;10.486;2023-06-01T05:25:53;20.90;96.00
38458;DHT22;24239;48.058;10.486;2023-06-01T05:28:31;20.50;95.90
38458;DHT22;24239;48.058;10.486;2023-06-01T05:30:58;20.30;95.90
38458;DHT22;24239;48.058;10.486;2023-06-01T05:33:24;20.40;95.70
38458;DHT22;24239;48.058;10.486;2023-06-01T05:35:51;20.30;95.90
38458;DHT22;24239;48.058;10.486;2023-06-01T05:38:19;20.40;95.80
38458;DHT22;24239;48.058;10.486;2023-06-01T05:40:48;20.40;95.20
38458;DHT22;24239;48.058;10.486;2023-06-01T05:43:15;20.40;95.80
38458;DHT22;24239;48.058;10.486;2023-06-01T05:45:41;20.40;95.00
38458;DHT22;24239;48.058;10.486;2023-06-01T05:48:07;20.40;95.50
38458;DHT22;24239;48.058;10.486;2023-06-01T05:50:45;20.60;95.10
38458;DHT22;24239;48.058;10.486;2023-06-01T05:53:11;20.50;94.40
38458;DHT22;24239;48.058;10.486;2023-06-01T05:55:37;20.60;94.80
38458;DHT22;24239;48.058;10.486;2023-06-01T05:58:02;20.50;94.80
38458;DHT22;24239;48.058;10.486;2023-06-01T06:00:30;20.50;95.10
38458;DHT22;24239;48.058;10.486;2023-06-01T06:02:56;20.50;94.70
38458;DHT22;24239;48.058;10.486;2023-06-01T06:05:22;20.50;94.80
38458;DHT22;24239;48.058;10.486;2023-06-01T06:07:48;20.60;94.60
38458;DHT22;24239;48.058;10.486;2023-06-01T06:10:15;21.10;94.70
38458;DHT22;24239;48.058;10.486;2023-06-01T06:12:42;21.20;94.20
38458;DHT22;24239;48.058;10.486;2023-06-01T06:15:08;20.90;94.30
38458;DHT22;24239;48.058;10.486;2023-06-01T06:17:36;20.80;94.20
38458;DHT22;24239;48.058;10.486;2023-06-01T06:20:05;20.90;94.60
38458;DHT22;24239;48.058;10.486;2023-06-01T06:22:35;20.50;94.60
38458;DHT22;24239;48.058;10.486;2023-06-01T06:25:01;19.80;95.50
38458;DHT22;24239;48.058;10.486;2023-06-01T06:27:28;19.10;96.40
38458;DHT22;24239;48.058;10.486;2023-06-01T06:29:57;18.90;97.20
38458;DHT22;24239;48.058;10.486;2023-06-01T06:32:25;18.50;97.50
38458;DHT22;24239;48.058;10.486;2023-06-01T06:34:54;18.30;98.00
38458;DHT22;24239;48.058;10.486;2023-06-01T06:37:23;17.70;98.40
38458;DHT22;24239;48.058;10.486;2023-06-01T06:39:50;17.50;99.10
38458;DHT22;24239;48.058;10.486;2023-06-01T06:42:15;17.40;99.50
38458;DHT22;24239;48.058;10.486;2023-06-01T06:44:43;16.90;99.80
38458;DHT22;24239;48.058;10.486;2023-06-01T06:47:12;16.80;99.90
38458;DHT22;24239;48.058;10.486;2023-06-01T06:49:46;16.70;99.90
38458;DHT22;24239;48.058;10.486;2023-06-01T06:52:13;16.60;99.90
38458;DHT22;24239;48.058;10.486;2023-06-01T06:54:41;16.60;99.90
38458;DHT22;24239;48.058;10.486;2023-06-01T06:57:10;16.90;99.90
38458;DHT22;24239;48.058;10.486;2023-06-01T06:59:37;17.00;99.90
38458;DHT22;24239;48.058;10.486;2023-06-01T07:02:04;17.10;99.90
38458;DHT22;24239;48.058;10.486;2023-06-01T07:04:31;17.10;99.90
38458;DHT22;24239;48.058;10.486;2023-06-01T07:06:58;17.10;99.90
38458;DHT22;24239;48.058;10.486;2023-06-01T07:09:26;17.20;99.90
38458;DHT22;24239;48.058;10.486;2023-06-01T07:11:51;17.20;99.90
38458;DHT22;24239;48.058;10.486;2023-06-01T07:14:17;17.30;99.90
38458;DHT22;24239;48.058;10.486;2023-06-01T07:16:43;17.30;99.90
38458;DHT22;24239;48.058;10.486;2023-06-01T07:19:08;17.40;99.90
38458;DHT22;24239;48.058;10.486;2023-06-01T07:21:34;17.30;99.90
38458;DHT22;24239;48.058;10.486;2023-06-01T07:24:01;17.40;99.90
38458;DHT22;24239;48.058;10.486;2023-06-01T07:26:28;17.50;99.90
38458;DHT22;24239;48.058;10.486;2023-06-01T07:28:56;17.60;99.90
38458;DHT22;24239;48.058;10.486;2023-06-01T07:31:23;17.70;99.90
38458;DHT22;24239;48.058;10.486;2023-06-01T07:33:50;17.50;99.90
38458;DHT22;24239;48.058;10.486;2023-06-01T07:36:19;17.60;99.90
38458;DHT22;24239;48.058;10.486;2023-06-01T07:38:50;17.70;99.90
38458;DHT22;24239;48.058;10.486;2023-06-01T07:41:19;17.70;99.90
38458;DHT22;24239;48.058;10.486;2023-06-01T07:43:48;17.80;99.90
38458;DHT22;24239;48.058;10.486;2023-06-01T07:46:16;17.70;99.90
38458;DHT22;24239;48.058;10.486;2023-06-01T07:48:42;17.70;99.90
38458;DHT22;24239;48.058;10.486;2023-06-01T07:51:07;17.80;99.90
38458;DHT22;24239;48.058;10.486;2023-06-01T07:53:36;17.90;99.90
38458;DHT22;24239;48.058;10.486;2023-06-01T07:56:02;18.10;99.90
38458;DHT22;24239;48.058;10.486;2023-06-01T07:58:28;18.10;99.90
38458;DHT22;24239;48.058;10.486;2023-06-01T08:00:55;18.20;99.90
38458;DHT22;24239;48.058;10.486;2023-06-01T08:03:24;18.20;99.90
38458;DHT22;24239;48.058;10.486;2023-06-01T08:05:51;18.20;99.90
38458;DHT22;24239;48.058;10.486;2023-06-01T08:08:23;18.10;99.90
38458;DHT22;24239;48.058;10.486;2023-06-01T08:10:49;18.10;99.90
38458;DHT22;24239;48.058;10.486;2023-06-01T08:13:15;18.10;99.90
38458;DHT22;24239;48.058;10.486;2023-06-01T08:15:41;18.40;99.90
38458;DHT22;24239;48.058;10.486;2023-06-01T08:18:08;18.50;99.90
38458;DHT22;24239;48.058;10.486;2023-06-01T08:20:34;18.60;99.90
38458;DHT22;24239;48.058;10.486;2023-06-01T08:23:01;18.90;99.90
38458;DHT22;24239;48.058;10.486;2023-06-01T08:25:28;19.00;99.90
38458;DHT22;24239;48.058;10.486;2023-06-01T08:27:56;19.10;99.90
38458;DHT22;24239;48.058;10.486;2023-06-01T08:30:24;19.20;99.50
38458;DHT22;24239;48.058;10.486;2023-06-01T08:32:50;19.40;99.80
38458;DHT22;24239;48.058;10.486;2023-06-01T08:35:17;19.30;99.90
38458;DHT22;24239;48.058;10.486;2023-06-01T08:37:44;19.50;99.30
38458;DHT22;24239;48.058;10.486;2023-06-01T08:40:10;19.60;99.90
38458;DHT22;24239;48.058;10.486;2023-06-01T08:42:43;19.70;99.70
38458;DHT22;24239;48.058;10.486;2023-06-01T08:45:16;19.80;99.10
38458;DHT22;24239;48.058;10.486;2023-06-01T08:47:49;19.90;99.00
38458;DHT22;24239;48.058;10.486;2023-06-01T08:50:21;19.90;99.10
38458;DHT22;24239;48.058;10.486;2023-06-01T08:52:47;19.90;99.20
38458;DHT22;24239;48.058;10.486;2023-06-01T08:55:15;20.10;98.90
38458;DHT22;24239;48.058;10.486;2023-06-01T08:57:42;20.30;98.70
38458;DHT22;24239;48.058;10.486;2023-06-01T09:00:10;20.40;98.20
38458;DHT22;24239;48.058;10.486;2023-06-01T09:02:38;20.50;97.70
38458;DHT22;24239;48.058;10.486;2023-06-01T09:05:06;20.50;98.20
38458;DHT22;24239;48.058;10.486;2023-06-01T09:07:33;20.50;98.10
38458;DHT22;24239;48.058;10.486;2023-06-01T09:10:01;20.50;97.40
38458;DHT22;24239;48.058;10.486;2023-06-01T09:12:30;20.70;97.40
38458;DHT22;24239;48.058;10.486;2023-06-01T09:17:30;20.90;97.50
38458;DHT22;24239;48.058;10.486;2023-06-01T09:19:59;21.00;97.30
38458;DHT22;24239;48.058;10.486;2023-06-01T09:22:25;21.00;97.60
38458;DHT22;24239;48.058;10.486;2023-06-01T09:25:02;21.00;98.10
38458;DHT22;24239;48.058;10.486;2023-06-01T09:27:28;21.20;97.50
38458;DHT22;24239;48.058;10.486;2023-06-01T09:29:57;21.40;96.70
38458;DHT22;24239;48.058;10.486;2023-06-01T09:32:28;21.50;96.30
38458;DHT22;24239;48.058;10.486;2023-06-01T09:34:56;21.50;96.10
38458;DHT22;24239;48.058;10.486;2023-06-01T09:37:22;21.40;96.70
38458;DHT22;24239;48.058;10.486;2023-06-01T09:39:47;21.40;96.40
38458;DHT22;24239;48.058;10.486;2023-06-01T09:42:15;21.40;96.30
38458;DHT22;24239;48.058;10.486;2023-06-01T09:44:41;21.40;96.70
38458;DHT22;24239;48.058;10.486;2023-06-01T09:47:11;21.50;96.10
38458;DHT22;24239;48.058;10.486;2023-06-01T09:49:39;21.60;95.90
38458;DHT22;24239;48.058;10.486;2023-06-01T09:54:32;21.60;96.20
38458;DHT22;24239;48.058;10.486;2023-06-01T09:57:01;21.60;95.90
38458;DHT22;24239;48.058;10.486;2023-06-01T09:59:28;21.60;95.60
38458;DHT22;24239;48.058;10.486;2023-06-01T10:01:56;21.60;96.10
38458;DHT22;24239;48.058;10.486;2023-06-01T10:04:25;21.50;96.40
38458;DHT22;24239;48.058;10.486;2023-06-01T10:06:57;21.60;96.20
38458;DHT22;24239;48.058;10.486;2023-06-01T10:09:25;21.70;96.10
38458;DHT22;24239;48.058;10.486;2023-06-01T10:11:54;21.70;96.20
38458;DHT22;24239;48.058;10.486;2023-06-01T10:14:24;21.80;95.60
38458;DHT22;24239;48.058;10.486;2023-06-01T10:16:50;21.70;95.50
38458;DHT22;24239;48.058;10.486;2023-06-01T10:19:21;21.70;96.00
38458;DHT22;24239;48.058;10.486;2023-06-01T10:21:51;21.70;96.50
38458;DHT22;24239;48.058;10.486;2023-06-01T10:24:19;21.70;95.70
38458;DHT22;24239;48.058;10.486;2023-06-01T10:26:56;21.80;95.00
38458;DHT22;24239;48.058;10.486;2023-06-01T10:29:32;21.80;95.40
38458;DHT22;24239;48.058;10.486;2023-06-01T10:32:00;21.90;95.70
38458;DHT22;24239;48.058;10.486;2023-06-01T10:39:28;22.10;95.10
38458;DHT22;24239;48.058;10.486;2023-06-01T10:41:57;22.10;95.10
38458;DHT22;24239;48.058;10.486;2023-06-01T10:47:43;22.10;95.90
38458;DHT22;24239;48.058;10.486;2023-06-01T10:52:29;22.40;94.50
38458;DHT22;24239;48.058;10.486;2023-06-01T10:55:18;22.40;94.90
38458;DHT22;24239;48.058;10.486;2023-06-01T10:57:45;22.50;94.70
38458;DHT22;24239;48.058;10.486;2023-06-01T11:05:36;22.70;94.20
38458;DHT22;24239;48.058;10.486;2023-06-01T11:08:09;22.80;94.50
38458;DHT22;24239;48.058;10.486;2023-06-01T11:10:59;22.90;93.60
38458;DHT22;24239;48.058;10.486;2023-06-01T11:24:11;23.30;92.50
38458;DHT22;24239;48.058;10.486;2023-06-01T11:26:47;23.20;93.80
38458;DHT22;24239;48.058;10.486;2023-06-01T11:32:00;23.40;92.70
38458;DHT22;24239;48.058;10.486;2023-06-01T11:36:58;23.40;92.20
38458;DHT22;24239;48.058;10.486;2023-06-01T11:39:28;23.40;92.00
38458;DHT22;24239;48.058;10.486;2023-06-01T11:44:36;23.30;92.30
38458;DHT22;24239;48.058;10.486;2023-06-01T11:47:03;23.30;93.30
38458;DHT22;24239;48.058;10.486;2023-06-01T11:49:30;23.20;92.50
38458;DHT22;24239;48.058;10.486;2023-06-01T11:51:55;23.30;92.70
38458;DHT22;24239;48.058;10.486;2023-06-01T11:54:23;23.40;92.90
38458;DHT22;24239;48.058;10.486;2023-06-01T11:56:49;23.40;92.50
38458;DHT22;24239;48.058;10.486;2023-06-01T11:59:17;23.60;92.30
38458;DHT22;24239;48.058;10.486;2023-06-01T12:01:50;23.80;91.60
38458;DHT22;24239;48.058;10.486;2023-06-01T12:04:21;23.90;91.40
38458;DHT22;24239;48.058;10.486;2023-06-01T12:06:53;23.90;92.20
38458;DHT22;24239;48.058;10.486;2023-06-01T12:09:30;23.90;91.00
38458;DHT22;24239;48.058;10.486;2023-06-01T12:11:58;23.90;91.10
38458;DHT22;24239;48.058;10.486;2023-06-01T12:14:25;24.00;92.20
38458;DHT22;24239;48.058;10.486;2023-06-01T12:19:47;24.20;90.80
38458;DHT22;24239;48.058;10.486;2023-06-01T12:22:17;24.30;90.90
38458;DHT22;24239;48.058;10.486;2023-06-01T12:24:45;24.40;90.30
38458;DHT22;24239;48.058;10.486;2023-06-01T12:27:15;24.30;90.20
38458;DHT22;24239;48.058;10.486;2023-06-01T12:32:10;24.20;90.20
38458;DHT22;24239;48.058;10.486;2023-06-01T12:34:39;24.10;89.90
38458;DHT22;24239;48.058;10.486;2023-06-01T12:37:19;24.00;89.10
38458;DHT22;24239;48.058;10.486;2023-06-01T12:39:54;24.00;90.00
38458;DHT22;24239;48.058;10.486;2023-06-01T12:42:34;24.00;90.50
38458;DHT22;24239;48.058;10.486;2023-06-01T12:45:03;24.10;88.40
38458;DHT22;24239;48.058;10.486;2023-06-01T12:47:38;24.10;89.90
38458;DHT22;24239;48.058;10.486;2023-06-01T12:50:08;24.30;90.20
38458;DHT22;24239;48.058;10.486;2023-06-01T12:52:35;24.50;89.20
38458;DHT22;24239;48.058;10.486;2023-06-01T12:55:02;24.70;89.60
38458;DHT22;24239;48.058;10.486;2023-06-01T12:57:29;24.70;88.50
38458;DHT22;24239;48.058;10.486;2023-06-01T12:59:58;24.60;88.20
38458;DHT22;24239;48.058;10.486;2023-06-01T13:02:24;24.50;87.20
38458;DHT22;24239;48.058;10.486;2023-06-01T13:04:54;24.30;88.50
38458;DHT22;24239;48.058;10.486;2023-06-01T13:07:22;24.30;87.40
38458;DHT22;24239;48.058;10.486;2023-06-01T13:09:49;24.50;87.60
38458;DHT22;24239;48.058;10.486;2023-06-01T13:12:18;24.50;87.70
38458;DHT22;24239;48.058;10.486;2023-06-01T13:14:45;24.50;89.40
38458;DHT22;24239;48.058;10.486;2023-06-01T13:17:12;24.60;89.20
38458;DHT22;24239;48.058;10.486;2023-06-01T13:19:41;24.90;87.30
38458;DHT22;24239;48.058;10.486;2023-06-01T13:22:12;25.00;85.40
38458;DHT22;24239;48.058;10.486;2023-06-01T13:24:40;25.10;85.40
38458;DHT22;24239;48.058;10.486;2023-06-01T13:27:05;25.10;84.50
38458;DHT22;24239;48.058;10.486;2023-06-01T13:29:33;25.50;84.40
38458;DHT22;24239;48.058;10.486;2023-06-01T13:32:01;25.50;85.70
38458;DHT22;24239;48.058;10.486;2023-06-01T13:34:28;25.60;85.20
38458;DHT22;24239;48.058;10.486;2023-06-01T13:36:55;25.60;83.20
38458;DHT22;24239;48.058;10.486;2023-06-01T13:39:22;25.50;83.90
38458;DHT22;24239;48.058;10.486;2023-06-01T13:41:50;25.40;83.30
38458;DHT22;24239;48.058;10.486;2023-06-01T13:44:16;25.30;82.30
38458;DHT22;24239;48.058;10.486;2023-06-01T13:46:45;25.40;81.90
38458;DHT22;24239;48.058;10.486;2023-06-01T13:49:11;25.70;82.70
38458;DHT22;24239;48.058;10.486;2023-06-01T13:51:38;25.90;84.50
38458;DHT22;24239;48.058;10.486;2023-06-01T13:54:08;25.50;84.40
38458;DHT22;24239;48.058;10.486;2023-06-01T13:56:35;25.20;84.90
38458;DHT22;24239;48.058;10.486;2023-06-01T13:59:02;25.00;84.30
38458;DHT22;24239;48.058;10.486;2023-06-01T14:01:30;24.80;85.10
38458;DHT22;24239;48.058;10.486;2023-06-01T14:03:57;24.70;86.80
38458;DHT22;24239;48.058;10.486;2023-06-01T14:06:25;25.00;84.70
38458;DHT22;24239;48.058;10.486;2023-06-01T14:08:51;25.30;83.90
38458;DHT22;24239;48.058;10.486;2023-06-01T14:11:17;25.40;84.30
38458;DHT22;24239;48.058;10.486;2023-06-01T14:13:43;25.70;81.60
38458;DHT22;24239;48.058;10.486;2023-06-01T14:16:11;25.90;82.00
38458;DHT22;24239;48.058;10.486;2023-06-01T14:18:37;26.00;83.50
38458;DHT22;24239;48.058;10.486;2023-06-01T14:21:02;26.20;82.20
38458;DHT22;24239;48.058;10.486;2023-06-01T14:23:28;26.20;80.70
38458;DHT22;24239;48.058;10.486;2023-06-01T14:25:55;26.10;82.30
38458;DHT22;24239;48.058;10.486;2023-06-01T14:28:21;25.90;81.20
38458;DHT22;24239;48.058;10.486;2023-06-01T14:30:46;26.00;81.80
38458;DHT22;24239;48.058;10.486;2023-06-01T14:33:12;25.90;80.20
38458;DHT22;24239;48.058;10.486;2023-06-01T14:35:38;25.90;80.20
38458;DHT22;24239;48.058;10.486;2023-06-01T14:38:04;25.90;81.10
38458;DHT22;24239;48.058;10.486;2023-06-01T14:40:30;25.90;80.50
38458;DHT22;24239;48.058;10.486;2023-06-01T14:42:57;26.00;81.40
38458;DHT22;24239;48.058;10.486;2023-06-01T14:45:25;26.00;79.70
38458;DHT22;24239;48.058;10.486;2023-06-01T14:47:54;26.10;80.00
38458;DHT22;24239;48.058;10.486;2023-06-01T14:50:21;26.20;78.70
38458;DHT22;24239;48.058;10.486;2023-06-01T14:52:47;26.40;77.90
38458;DHT22;24239;48.058;10.486;2023-06-01T14:55:13;26.50;78.60
38458;DHT22;24239;48.058;10.486;2023-06-01T14:57:42;26.40;76.30
38458;DHT22;24239;48.058;10.486;2023-06-01T15:00:11;26.30;76.90
38458;DHT22;24239;48.058;10.486;2023-06-01T15:02:36;26.30;77.20
38458;DHT22;24239;48.058;10.486;2023-06-01T15:05:02;26.30;76.50
38458;DHT22;24239;48.058;10.486;2023-06-01T15:07:28;26.50;77.40
38458;DHT22;24239;48.058;10.486;2023-06-01T15:09:54;26.50;77.40
38458;DHT22;24239;48.058;10.486;2023-06-01T15:12:21;26.60;76.60
38458;DHT22;24239;48.058;10.486;2023-06-01T15:14:49;26.50;77.50
38458;DHT22;24239;48.058;10.486;2023-06-01T15:17:16;26.50;77.10
38458;DHT22;24239;48.058;10.486;2023-06-01T15:19:43;26.50;76.70
38458;DHT22;24239;48.058;10.486;2023-06-01T15:22:09;26.30;76.60
38458;DHT22;24239;48.058;10.486;2023-06-01T15:24:36;26.30;77.00
38458;DHT22;24239;48.058;10.486;2023-06-01T15:27:05;26.40;76.40
38458;DHT22;24239;48.058;10.486;2023-06-01T15:29:33;26.50;76.30
38458;DHT22;24239;48.058;10.486;2023-06-01T15:32:03;26.60;74.00
38458;DHT22;24239;48.058;10.486;2023-06-01T15:34:33;26.60;74.70
38458;DHT22;24239;48.058;10.486;2023-06-01T15:37:02;26.70;73.40
38458;DHT22;24239;48.058;10.486;2023-06-01T15:39:29;26.80;73.70
38458;DHT22;24239;48.058;10.486;2023-06-01T15:41:55;27.00;74.70
38458;DHT22;24239;48.058;10.486;2023-06-01T15:44:21;26.90;74.50
38458;DHT22;24239;48.058;10.486;2023-06-01T15:46:47;26.90;75.40
38458;DHT22;24239;48.058;10.486;2023-06-01T15:49:14;27.00;75.30
38458;DHT22;24239;48.058;10.486;2023-06-01T15:51:42;27.00;73.60
38458;DHT22;24239;48.058;10.486;2023-06-01T15:54:09;27.20;74.70
38458;DHT22;24239;48.058;10.486;2023-06-01T15:56:35;27.10;74.40
38458;DHT22;24239;48.058;10.486;2023-06-01T15:59:02;27.10;74.40
38458;DHT22;24239;48.058;10.486;2023-06-01T16:01:29;26.90;76.20
38458;DHT22;24239;48.058;10.486;2023-06-01T16:03:55;26.80;76.50
38458;DHT22;24239;48.058;10.486;2023-06-01T16:06:20;26.40;76.40
38458;DHT22;24239;48.058;10.486;2023-06-01T16:08:47;26.50;75.60
38458;DHT22;24239;48.058;10.486;2023-06-01T16:11:12;26.20;76.20
38458;DHT22;24239;48.058;10.486;2023-06-01T16:13:38;26.10;76.50
38458;DHT22;24239;48.058;10.486;2023-06-01T16:16:05;26.10;76.10
38458;DHT22;24239;48.058;10.486;2023-06-01T16:18:30;26.20;76.90
38458;DHT22;24239;48.058;10.486;2023-06-01T16:20:57;26.40;76.20
38458;DHT22;24239;48.058;10.486;2023-06-01T16:23:23;26.60;76.50